createdAt,value
2019-04-19T00:01:01.437Z,9.70
2019-04-19T00:02:01.750Z,9.66
2019-04-19T00:02:56.058Z,9.76
2019-04-19T00:03:57.273Z,9.72
2019-04-19T00:04:59.346Z,9.66
2019-04-19T00:05:56.012Z,9.62
2019-04-19T00:07:05.710Z,9.63
2019-04-19T00:08:12.501Z,9.58
2019-04-19T00:09:08.988Z,9.54
2019-04-19T00:10:02.466Z,9.54
2019-04-19T00:11:07.166Z,9.54
2019-04-19T00:12:07.176Z,9.47
2019-04-19T00:12:59.997Z,9.48
2019-04-19T00:13:55.721Z,9.47
2019-04-19T00:14:55.475Z,9.51
2019-04-19T00:15:56.074Z,9.49
2019-04-19T00:16:55.607Z,9.48
2019-04-19T00:17:59.943Z,9.44
2019-04-19T00:19:21.251Z,9.34
2019-04-19T00:20:22.073Z,9.47
2019-04-19T00:21:13.683Z,9.31
2019-04-19T00:22:17.026Z,9.34
2019-04-19T00:23:08.753Z,9.34
2019-04-19T00:23:56.936Z,9.34
2019-04-19T00:24:56.591Z,9.40
2019-04-19T00:25:55.785Z,9.34
2019-04-19T00:26:56.933Z,9.40
2019-04-19T00:27:59.415Z,9.27
2019-04-19T00:29:01.037Z,9.33
2019-04-19T00:30:02.257Z,9.29
2019-04-19T00:31:12.014Z,9.27
2019-04-19T00:32:15.705Z,9.30
2019-04-19T00:33:09.095Z,9.27
2019-04-19T00:33:58.836Z,9.21
2019-04-19T00:34:56.699Z,9.30
2019-04-19T00:35:55.915Z,9.19
2019-04-19T00:36:55.851Z,9.15
2019-04-19T00:38:02.463Z,9.18
2019-04-19T00:39:15.328Z,9.16
2019-04-19T00:40:15.590Z,9.16
2019-04-19T00:41:14.394Z,9.16
2019-04-19T00:42:16.622Z,9.16
2019-04-19T00:43:08.958Z,9.19
2019-04-19T00:44:06.909Z,9.16
2019-04-19T00:45:15.854Z,9.08
2019-04-19T00:46:09.029Z,9.15
2019-04-19T00:47:14.481Z,9.13
2019-04-19T00:48:07.410Z,9.15
2019-04-19T00:49:10.215Z,9.13
2019-04-19T00:50:09.632Z,9.18
2019-04-19T00:51:08.139Z,9.11
2019-04-19T00:52:10.365Z,9.19
2019-04-19T00:53:11.344Z,9.15
2019-04-19T00:54:07.217Z,9.21
2019-04-19T00:55:04.734Z,9.11
2019-04-19T00:56:04.531Z,9.11
2019-04-19T00:57:02.966Z,9.13
2019-04-19T00:58:04.070Z,9.02
2019-04-19T00:59:00.706Z,9.08
2019-04-19T00:59:56.882Z,9.03
2019-04-19T01:00:57.314Z,9.13
2019-04-19T01:02:04.274Z,9.02
2019-04-19T01:02:57.919Z,9.03
2019-04-19T01:03:57.330Z,9.12
2019-04-19T01:05:03.673Z,9.05
2019-04-19T01:06:02.049Z,9.11
2019-04-19T01:07:00.575Z,9.18
2019-04-19T01:08:01.829Z,9.09
2019-04-19T01:09:12.042Z,9.18
2019-04-19T01:10:14.839Z,9.11
2019-04-19T01:11:12.971Z,9.05
2019-04-19T01:12:10.759Z,9.09
2019-04-19T01:13:08.042Z,9.03
2019-04-19T01:14:11.735Z,9.02
2019-04-19T01:15:09.314Z,9.12
2019-04-19T01:16:11.213Z,9.05
2019-04-19T01:17:15.152Z,9.08
2019-04-19T01:18:11.560Z,9.09
2019-04-19T01:19:04.192Z,9.08
2019-04-19T01:20:00.268Z,9.21
2019-04-19T01:20:56.598Z,9.03
2019-04-19T01:21:57.463Z,9.15
2019-04-19T01:23:05.350Z,9.12
2019-04-19T01:23:59.051Z,9.13
2019-04-19T01:24:56.664Z,9.16
2019-04-19T01:26:01.653Z,9.18
2019-04-19T01:26:58.766Z,9.24
2019-04-19T01:28:03.272Z,9.33
2019-04-19T01:29:02.606Z,9.31
2019-04-19T01:29:58.298Z,9.33
2019-04-19T01:30:57.051Z,9.37
2019-04-19T01:32:03.150Z,9.31
2019-04-19T01:32:59.806Z,9.37
2019-04-19T01:33:56.815Z,9.45
2019-04-19T01:35:00.943Z,9.49
2019-04-19T01:35:57.416Z,9.48
2019-04-19T01:36:57.013Z,9.58
2019-04-19T01:38:00.716Z,9.58
2019-04-19T01:39:14.541Z,9.66
2019-04-19T01:40:09.379Z,9.64
2019-04-19T01:41:14.506Z,9.64
2019-04-19T01:42:11.736Z,9.59
2019-04-19T01:43:13.360Z,9.64
2019-04-19T01:44:21.455Z,9.73
2019-04-19T01:45:12.552Z,9.74
2019-04-19T01:46:13.047Z,9.73
2019-04-19T01:47:19.976Z,9.70
2019-04-19T01:48:12.995Z,9.77
2019-04-19T01:49:06.277Z,9.73
2019-04-19T01:50:11.299Z,9.76
2019-04-19T01:51:13.322Z,9.72
2019-04-19T01:52:18.122Z,9.76
2019-04-19T01:53:17.393Z,9.77
2019-04-19T01:54:20.557Z,9.70
2019-04-19T01:55:07.677Z,9.72
2019-04-19T01:56:03.829Z,9.74
2019-04-19T01:57:02.207Z,9.76
2019-04-19T01:58:04.909Z,9.76
2019-04-19T01:59:00.735Z,9.70
2019-04-19T01:59:59.159Z,9.74
2019-04-19T02:01:00.237Z,9.76
2019-04-19T02:02:01.487Z,9.72
2019-04-19T02:03:01.208Z,9.76
2019-04-19T02:03:57.324Z,9.70
2019-04-19T02:05:03.137Z,9.74
2019-04-19T02:06:01.864Z,9.74
2019-04-19T02:06:58.326Z,9.77
2019-04-19T02:08:03.464Z,9.74
2019-04-19T02:08:59.200Z,9.81
2019-04-19T02:10:12.217Z,9.73
2019-04-19T02:11:05.522Z,9.74
2019-04-19T02:12:12.829Z,9.69
2019-04-19T02:13:10.238Z,9.77
2019-04-19T02:14:04.831Z,9.70
2019-04-19T02:15:03.871Z,9.77
2019-04-19T02:15:58.036Z,9.74
2019-04-19T02:17:02.625Z,9.76
2019-04-19T02:17:58.813Z,9.74
2019-04-19T02:19:05.317Z,9.70
2019-04-19T02:20:02.768Z,9.70
2019-04-19T02:20:58.194Z,9.70
2019-04-19T02:22:02.086Z,9.77
2019-04-19T02:23:04.286Z,9.72
2019-04-19T02:24:01.790Z,9.66
2019-04-19T02:25:00.244Z,9.73
2019-04-19T02:26:03.585Z,9.73
2019-04-19T02:27:02.746Z,9.72
2019-04-19T02:27:58.462Z,9.72
2019-04-19T02:29:02.741Z,9.80
2019-04-19T02:30:07.084Z,9.73
2019-04-19T02:31:10.613Z,9.74
2019-04-19T02:32:19.078Z,9.73
2019-04-19T02:33:20.280Z,9.70
2019-04-19T02:34:29.125Z,9.76
2019-04-19T02:35:20.193Z,9.72
2019-04-19T02:36:25.407Z,9.76
2019-04-19T02:37:28.440Z,9.77
2019-04-19T02:38:22.757Z,9.76
2019-04-19T02:39:30.858Z,9.74
2019-04-19T02:42:32.691Z,9.69
2019-04-19T02:43:37.889Z,9.73
2019-04-19T02:44:46.171Z,9.72
2019-04-19T02:45:26.239Z,9.73
2019-04-19T02:48:26.283Z,9.72
2019-04-19T02:49:28.488Z,9.76
2019-04-19T02:50:35.879Z,9.72
2019-04-19T02:51:25.370Z,9.72
2019-04-19T02:52:40.979Z,9.74
2019-04-19T02:53:23.960Z,9.67
2019-04-19T02:54:25.663Z,9.67
2019-04-19T02:55:20.022Z,9.69
2019-04-19T02:56:39.281Z,9.73
2019-04-19T02:57:36.739Z,9.69
2019-04-19T02:58:21.404Z,9.72
2019-04-19T02:59:36.975Z,9.70
2019-04-19T03:00:37.148Z,9.72
2019-04-19T03:01:34.491Z,9.67
2019-04-19T03:02:37.695Z,9.70
2019-04-19T03:05:22.099Z,9.66
2019-04-19T03:06:15.325Z,9.62
2019-04-19T03:07:01.125Z,9.66
2019-04-19T03:07:59.583Z,9.62
2019-04-19T03:08:58.584Z,9.55
2019-04-19T03:09:58.447Z,9.56
2019-04-19T03:11:08.994Z,9.56
2019-04-19T03:12:13.754Z,9.51
2019-04-19T03:13:16.229Z,9.49
2019-04-19T03:14:11.912Z,9.47
2019-04-19T03:15:09.939Z,9.56
2019-04-19T03:16:21.736Z,9.47
2019-04-19T03:17:18.899Z,9.44
2019-04-19T03:18:19.332Z,9.45
2019-04-19T03:19:09.447Z,9.47
2019-04-19T03:20:17.893Z,9.48
2019-04-19T03:21:17.019Z,9.55
2019-04-19T03:22:18.315Z,9.47
2019-04-19T03:23:13.927Z,9.44
2019-04-19T03:24:16.791Z,9.48
2019-04-19T03:25:15.250Z,9.42
2019-04-19T03:26:17.169Z,9.29
2019-04-19T03:27:09.032Z,9.40
2019-04-19T03:28:11.074Z,9.33
2019-04-19T03:29:08.066Z,9.30
2019-04-19T03:30:11.210Z,9.37
2019-04-19T03:31:23.352Z,9.31
2019-04-19T03:34:20.627Z,9.31
2019-04-19T03:35:22.195Z,9.34
2019-04-19T03:36:18.301Z,9.39
2019-04-19T03:37:16.435Z,9.44
2019-04-19T03:38:12.762Z,9.30
2019-04-19T03:39:23.007Z,9.37
2019-04-19T03:41:29.335Z,9.36
2019-04-19T03:42:20.077Z,9.36
2019-04-19T03:43:20.129Z,9.31
2019-04-19T03:44:17.154Z,9.29
2019-04-19T03:45:19.099Z,9.34
2019-04-19T03:46:15.980Z,9.33
2019-04-19T03:47:19.013Z,9.33
2019-04-19T03:48:35.039Z,9.27
2019-04-19T03:49:24.115Z,9.31
2019-04-19T03:50:15.576Z,9.29
2019-04-19T03:51:15.382Z,9.30
2019-04-19T03:52:20.134Z,9.16
2019-04-19T03:53:20.552Z,9.19
2019-04-19T03:54:17.575Z,9.18
2019-04-19T03:55:19.182Z,9.18
2019-04-19T03:56:18.069Z,9.16
2019-04-19T03:57:10.155Z,9.18
2019-04-19T03:58:06.474Z,9.15
2019-04-19T03:58:59.269Z,9.09
2019-04-19T04:00:00.302Z,9.08
2019-04-19T04:01:00.088Z,9.12
2019-04-19T04:02:01.012Z,9.22
2019-04-19T04:03:03.225Z,9.12
2019-04-19T04:04:07.380Z,9.12
2019-04-19T04:05:06.007Z,9.15
2019-04-19T04:05:59.935Z,9.13
2019-04-19T04:07:05.321Z,9.13
2019-04-19T04:08:04.607Z,9.02
2019-04-19T04:09:03.084Z,9.08
2019-04-19T04:10:00.700Z,9.09
2019-04-19T04:11:00.155Z,9.00
2019-04-19T04:12:15.244Z,9.05
2019-04-19T04:13:14.078Z,8.95
2019-04-19T04:14:13.658Z,9.03
2019-04-19T04:15:10.422Z,8.95
2019-04-19T04:16:14.057Z,9.00
2019-04-19T04:17:00.190Z,8.95
2019-04-19T04:18:00.614Z,8.87
2019-04-19T04:18:59.678Z,8.93
2019-04-19T04:20:00.786Z,8.95
2019-04-19T04:21:00.633Z,8.93
2019-04-19T04:22:00.596Z,8.97
2019-04-19T04:23:03.610Z,8.96
2019-04-19T04:24:12.126Z,8.87
2019-04-19T04:25:09.511Z,8.95
2019-04-19T04:26:06.636Z,8.93
2019-04-19T04:27:07.689Z,8.93
2019-04-19T04:28:08.996Z,8.97
2019-04-19T04:29:10.381Z,8.95
2019-04-19T04:30:10.101Z,8.89
2019-04-19T04:31:09.748Z,8.92
2019-04-19T04:32:11.941Z,8.95
2019-04-19T04:33:07.396Z,8.97
2019-04-19T04:34:05.219Z,8.92
2019-04-19T04:35:13.944Z,8.84
2019-04-19T04:36:20.933Z,8.95
2019-04-19T04:37:17.071Z,8.96
2019-04-19T04:38:08.951Z,8.96
2019-04-19T04:39:00.822Z,8.95
2019-04-19T04:39:59.949Z,8.93
2019-04-19T04:41:10.721Z,8.92
2019-04-19T04:42:12.393Z,8.99
2019-04-19T04:43:13.761Z,8.95
2019-04-19T04:44:19.975Z,8.95
2019-04-19T04:45:24.680Z,9.00
2019-04-19T04:46:20.959Z,8.93
2019-04-19T04:47:23.243Z,8.96
2019-04-19T04:48:21.615Z,8.93
2019-04-19T04:49:30.570Z,9.02
2019-04-19T04:50:28.853Z,9.05
2019-04-19T04:51:19.662Z,9.02
2019-04-19T04:52:11.338Z,9.09
2019-04-19T04:53:01.426Z,9.00
2019-04-19T04:54:00.205Z,9.05
2019-04-19T04:55:00.980Z,9.15
2019-04-19T04:56:02.809Z,9.12
2019-04-19T04:57:07.239Z,9.12
2019-04-19T04:58:02.744Z,9.05
2019-04-19T04:59:06.320Z,9.12
2019-04-19T05:00:02.522Z,9.19
2019-04-19T05:01:07.917Z,9.15
2019-04-19T05:02:08.203Z,9.05
2019-04-19T05:03:13.764Z,9.09
2019-04-19T05:04:17.384Z,9.09
2019-04-19T05:05:23.470Z,9.22
2019-04-19T05:06:16.492Z,9.16
2019-04-19T05:07:22.980Z,9.19
2019-04-19T05:08:19.508Z,9.18
2019-04-19T05:09:25.127Z,9.18
2019-04-19T05:10:20.125Z,9.21
2019-04-19T05:11:16.578Z,9.21
2019-04-19T05:12:34.017Z,9.30
2019-04-19T05:13:23.607Z,9.24
2019-04-19T05:14:18.240Z,9.29
2019-04-19T05:15:22.323Z,9.27
2019-04-19T05:16:27.570Z,9.29
2019-04-19T05:18:40.234Z,9.33
2019-04-19T05:19:17.842Z,9.36
2019-04-19T05:20:19.163Z,9.34
2019-04-19T05:21:17.967Z,9.31
2019-04-19T05:22:14.927Z,9.39
2019-04-19T05:23:19.769Z,9.44
2019-04-19T05:24:21.066Z,9.33
2019-04-19T05:25:28.315Z,9.44
2019-04-19T05:26:31.293Z,9.36
2019-04-19T05:27:24.743Z,9.48
2019-04-19T05:28:16.830Z,9.48
2019-04-19T05:29:11.002Z,9.47
2019-04-19T05:30:01.112Z,9.47
2019-04-19T05:31:04.111Z,9.47
2019-04-19T05:32:12.957Z,9.56
2019-04-19T05:33:08.437Z,9.56
2019-04-19T05:34:20.227Z,9.55
2019-04-19T05:35:16.755Z,9.64
2019-04-19T05:36:20.679Z,9.63
2019-04-19T05:37:16.226Z,9.67
2019-04-19T05:38:17.569Z,9.67
2019-04-19T05:40:21.589Z,9.73
2019-04-19T05:41:08.209Z,9.70
2019-04-19T05:42:14.501Z,9.74
2019-04-19T05:43:34.762Z,9.74
2019-04-19T05:46:21.197Z,9.84
2019-04-19T05:47:20.776Z,9.85
2019-04-19T05:48:18.340Z,9.85
2019-04-19T05:49:17.969Z,9.92
2019-04-19T05:50:28.032Z,9.95
2019-04-19T05:51:42.350Z,10.05
2019-04-19T05:52:27.007Z,9.99
2019-04-19T05:53:14.355Z,10.12
2019-04-19T05:54:06.838Z,10.10
2019-04-19T05:55:02.364Z,10.18
2019-04-19T05:56:01.231Z,10.18
2019-04-19T05:57:25.768Z,10.24
2019-04-19T05:58:11.382Z,10.31
2019-04-19T05:59:10.986Z,10.33
2019-04-19T06:00:14.965Z,10.36
2019-04-19T06:01:16.137Z,10.24
2019-04-19T06:02:12.464Z,10.31
2019-04-19T06:03:09.083Z,10.42
2019-04-19T06:04:22.060Z,10.45
2019-04-19T06:05:20.234Z,10.55
2019-04-19T06:06:26.228Z,10.67
2019-04-19T06:07:20.177Z,10.61
2019-04-19T06:08:10.374Z,10.75
2019-04-19T06:09:02.378Z,10.76
2019-04-19T06:10:03.554Z,10.84
2019-04-19T06:11:04.378Z,10.83
2019-04-19T06:12:08.309Z,10.86
2019-04-19T06:13:07.057Z,10.94
2019-04-19T06:14:28.942Z,11.00
2019-04-19T06:15:27.236Z,11.08
2019-04-19T06:16:21.078Z,11.19
2019-04-19T06:17:14.952Z,11.19
2019-04-19T06:18:16.680Z,11.25
2019-04-19T06:19:24.729Z,11.33
2019-04-19T06:20:20.655Z,11.41
2019-04-19T06:21:26.066Z,11.53
2019-04-19T06:22:14.585Z,11.55
2019-04-19T06:23:19.079Z,11.88
2019-04-19T06:24:26.526Z,11.93
2019-04-19T06:25:29.127Z,12.11
2019-04-19T06:27:25.104Z,12.61
2019-04-19T06:28:26.031Z,12.81
2019-04-19T06:29:22.592Z,13.03
2019-04-19T06:30:21.640Z,13.19
2019-04-19T06:31:27.034Z,13.50
2019-04-19T06:32:24.838Z,13.62
2019-04-19T06:33:21.524Z,13.95
2019-04-19T06:34:22.794Z,14.11
2019-04-19T06:35:15.335Z,14.25
2019-04-19T06:36:05.841Z,14.58
2019-04-19T06:37:11.061Z,14.70
2019-04-19T06:38:03.348Z,14.92
2019-04-19T06:39:02.080Z,15.07
2019-04-19T06:40:12.849Z,15.22
2019-04-19T06:41:08.692Z,15.45
2019-04-19T06:42:07.308Z,15.65
2019-04-19T06:43:08.798Z,15.85
2019-04-19T06:44:12.839Z,16.10
2019-04-19T06:45:25.289Z,16.28
2019-04-19T06:46:13.427Z,16.43
2019-04-19T06:47:11.090Z,16.64
2019-04-19T06:48:09.224Z,16.86
2019-04-19T06:49:08.322Z,17.12
2019-04-19T06:50:02.941Z,17.27
2019-04-19T06:51:13.062Z,17.30
2019-04-19T06:52:11.445Z,17.41
2019-04-19T06:53:02.318Z,17.54
2019-04-19T06:54:06.912Z,17.59
2019-04-19T06:55:10.026Z,17.68
2019-04-19T06:56:11.874Z,17.87
2019-04-19T06:57:12.036Z,18.06
2019-04-19T06:58:11.612Z,18.18
2019-04-19T06:59:13.075Z,18.31
2019-04-19T07:00:12.922Z,18.48
2019-04-19T07:01:14.363Z,18.67
2019-04-19T07:02:03.568Z,18.79
2019-04-19T07:03:02.622Z,18.85
2019-04-19T07:04:02.579Z,19.00
2019-04-19T07:05:20.424Z,19.16
2019-04-19T07:06:21.346Z,19.22
2019-04-19T07:07:23.558Z,19.45
2019-04-19T07:08:47.736Z,19.44
2019-04-19T07:09:26.436Z,19.60
2019-04-19T07:10:32.250Z,19.70
2019-04-19T07:11:28.399Z,19.64
2019-04-19T07:12:28.636Z,19.81
2019-04-19T07:13:18.042Z,19.96
2019-04-19T07:14:11.745Z,20.03
2019-04-19T07:15:30.127Z,20.24
2019-04-19T07:16:28.959Z,20.33
2019-04-19T07:17:23.502Z,20.49
2019-04-19T07:18:22.207Z,20.58
2019-04-19T07:19:26.615Z,20.58
2019-04-19T07:20:16.283Z,20.67
2019-04-19T07:21:26.336Z,20.67
2019-04-19T07:22:15.561Z,20.66
2019-04-19T07:23:24.197Z,20.71
2019-04-19T07:24:32.330Z,20.85
2019-04-19T07:25:30.482Z,20.92
2019-04-19T07:26:21.639Z,20.95
2019-04-19T07:27:15.527Z,21.07
2019-04-19T07:28:09.740Z,21.04
2019-04-19T07:29:04.182Z,21.14
2019-04-19T07:30:05.136Z,21.28
2019-04-19T07:31:06.169Z,21.30
2019-04-19T07:32:03.888Z,21.38
2019-04-19T07:33:09.405Z,21.41
2019-04-19T07:34:14.731Z,21.44
2019-04-19T07:35:13.371Z,21.44
2019-04-19T07:36:22.226Z,21.60
2019-04-19T07:37:20.803Z,21.65
2019-04-19T07:38:27.217Z,21.72
2019-04-19T07:39:22.838Z,21.69
2019-04-19T07:40:29.434Z,21.78
2019-04-19T07:41:21.944Z,21.97
2019-04-19T07:42:25.303Z,21.97
2019-04-19T07:43:18.305Z,22.07
2019-04-19T07:44:19.941Z,22.03
2019-04-19T07:45:08.303Z,22.07
2019-04-19T07:46:21.259Z,22.08
2019-04-19T07:47:20.168Z,22.21
2019-04-19T07:48:11.144Z,22.12
2019-04-19T07:49:04.125Z,22.21
2019-04-19T07:50:13.444Z,22.31
2019-04-19T07:51:11.045Z,22.28
2019-04-19T07:52:14.019Z,22.30
2019-04-19T07:53:04.262Z,22.33
2019-04-19T07:54:11.839Z,22.40
2019-04-19T07:55:08.423Z,22.47
2019-04-19T07:56:18.793Z,22.49
2019-04-19T07:57:39.487Z,22.44
2019-04-19T07:59:42.345Z,22.55
2019-04-19T08:01:33.111Z,22.47
2019-04-19T08:02:36.053Z,22.43
2019-04-19T08:03:38.435Z,22.40
2019-04-19T08:04:40.481Z,22.38
2019-04-19T08:05:26.666Z,22.28
2019-04-19T08:06:35.690Z,22.07
2019-04-19T08:07:41.393Z,21.88
2019-04-19T08:08:40.194Z,21.69
2019-04-19T08:10:28.289Z,21.41
2019-04-19T08:11:44.363Z,21.33
2019-04-19T08:15:27.542Z,20.78
2019-04-19T08:16:47.317Z,20.64
2019-04-19T08:27:27.513Z,19.75
2019-04-19T08:28:18.071Z,19.64
2019-04-19T08:29:16.121Z,19.60
2019-04-19T08:30:10.288Z,19.59
2019-04-19T08:31:07.202Z,19.56
2019-04-19T08:32:04.754Z,19.56
2019-04-19T08:33:04.778Z,19.49
2019-04-19T08:34:09.399Z,19.44
2019-04-19T08:35:09.380Z,19.38
2019-04-19T08:36:07.405Z,19.42
2019-04-19T08:37:10.117Z,19.48
2019-04-19T08:38:08.305Z,19.48
2019-04-19T08:39:21.236Z,19.34
2019-04-19T08:40:26.362Z,19.39
2019-04-19T08:41:14.891Z,19.39
2019-04-19T08:43:06.388Z,19.41
2019-04-19T08:43:22.778Z,19.29
2019-04-19T08:44:18.146Z,19.27
2019-04-19T08:45:10.175Z,19.29
2019-04-19T08:46:05.075Z,19.30
2019-04-19T08:47:16.806Z,19.32
2019-04-19T08:48:13.459Z,19.30
2019-04-19T08:49:10.651Z,19.39
2019-04-19T08:50:08.463Z,19.37
2019-04-19T08:51:05.807Z,19.35
2019-04-19T08:52:08.243Z,19.35
2019-04-19T08:53:24.071Z,19.37
2019-04-19T08:54:27.278Z,19.41
2019-04-19T08:55:26.148Z,19.37
2019-04-19T08:56:19.911Z,19.35
2019-04-19T08:57:12.587Z,19.39
2019-04-19T08:58:11.381Z,19.30
2019-04-19T08:59:28.005Z,19.37
2019-04-19T09:00:37.355Z,19.48
2019-04-19T09:01:27.364Z,19.49
2019-04-19T09:02:27.307Z,19.47
2019-04-19T09:03:19.199Z,19.48
2019-04-19T09:04:28.003Z,19.55
2019-04-19T09:05:23.473Z,19.60
2019-04-19T09:07:15.562Z,19.57
2019-04-19T09:07:46.260Z,19.71
2019-04-19T09:08:31.084Z,19.63
2019-04-19T09:09:24.751Z,19.74
2019-04-19T09:10:30.346Z,19.72
2019-04-19T09:12:23.716Z,19.81
2019-04-19T09:13:35.314Z,19.90
2019-04-19T09:14:33.082Z,19.92
2019-04-19T09:15:21.579Z,19.93
2019-04-19T09:16:20.990Z,19.96
2019-04-19T09:17:30.110Z,20.04
2019-04-19T09:18:31.997Z,20.02
2019-04-19T09:19:37.430Z,20.12
2019-04-19T09:20:26.689Z,20.10
2019-04-19T09:21:21.818Z,20.19
2019-04-19T09:22:24.289Z,20.11
2019-04-19T09:23:21.944Z,20.22
2019-04-19T09:24:12.857Z,20.22
2019-04-19T09:25:19.736Z,20.19
2019-04-19T09:26:26.550Z,20.34
2019-04-19T09:27:33.924Z,20.30
2019-04-19T09:28:36.596Z,20.42
2019-04-19T09:29:32.367Z,20.33
2019-04-19T09:30:27.426Z,20.46
2019-04-19T09:31:25.301Z,20.48
2019-04-19T09:32:11.876Z,20.52
2019-04-19T09:33:13.072Z,20.53
2019-04-19T09:34:10.646Z,20.63
2019-04-19T09:35:09.568Z,20.63
2019-04-19T09:36:11.233Z,20.70
2019-04-19T09:37:18.247Z,20.71
2019-04-19T09:38:17.157Z,20.68
2019-04-19T09:39:22.075Z,20.75
2019-04-19T09:40:11.485Z,20.78
2019-04-19T09:41:17.449Z,20.77
2019-04-19T09:42:18.420Z,20.80
2019-04-19T09:43:20.050Z,20.78
2019-04-19T09:44:16.931Z,20.95
2019-04-19T09:45:07.236Z,20.95
2019-04-19T09:46:06.446Z,20.93
2019-04-19T09:47:07.557Z,20.96
2019-04-19T09:48:13.900Z,21.00
2019-04-19T09:49:22.711Z,21.03
2019-04-19T09:50:16.115Z,21.01
2019-04-19T09:51:25.609Z,21.20
2019-04-19T09:52:31.769Z,21.25
2019-04-19T09:53:38.442Z,21.17
2019-04-19T09:54:25.713Z,21.19
2019-04-19T09:55:29.878Z,21.25
2019-04-19T09:56:26.011Z,21.29
2019-04-19T09:57:31.374Z,21.30
2019-04-19T09:58:25.531Z,21.32
2019-04-19T09:59:17.208Z,21.40
2019-04-19T10:00:12.207Z,21.35
2019-04-19T10:01:06.824Z,21.44
2019-04-19T10:02:08.444Z,21.43
2019-04-19T10:03:19.832Z,21.51
2019-04-19T10:04:08.953Z,21.50
2019-04-19T10:05:07.537Z,21.44
2019-04-19T10:06:06.914Z,21.59
2019-04-19T10:07:07.046Z,21.65
2019-04-19T10:08:06.965Z,21.65
2019-04-19T10:09:12.670Z,21.63
2019-04-19T10:10:09.833Z,21.69
2019-04-19T10:11:07.182Z,21.72
2019-04-19T10:12:07.069Z,21.74
2019-04-19T10:13:07.843Z,21.78
2019-04-19T10:14:08.203Z,21.74
2019-04-19T10:15:07.129Z,21.94
2019-04-19T10:16:08.190Z,21.89
2019-04-19T10:17:09.461Z,21.94
2019-04-19T10:18:07.222Z,22.07
2019-04-19T10:19:08.515Z,22.10
2019-04-19T10:20:07.255Z,22.06
2019-04-19T10:21:11.824Z,22.36
2019-04-19T10:22:07.307Z,22.37
2019-04-19T10:23:07.331Z,22.55
2019-04-19T10:24:12.931Z,22.62
2019-04-19T10:25:07.386Z,22.77
2019-04-19T10:26:10.696Z,22.99
2019-04-19T10:27:08.915Z,23.20
2019-04-19T10:28:07.716Z,23.29
2019-04-19T10:29:17.875Z,23.48
2019-04-19T10:30:08.245Z,23.63
2019-04-19T10:31:07.549Z,23.84
2019-04-19T10:32:08.551Z,23.99
2019-04-19T10:33:08.638Z,24.13
2019-04-19T10:34:07.815Z,24.24
2019-04-19T10:35:07.665Z,24.40
2019-04-19T10:36:08.696Z,24.61
2019-04-19T10:37:07.987Z,24.59
2019-04-19T10:38:07.782Z,24.62
2019-04-19T10:39:07.850Z,24.88
2019-04-19T10:40:07.930Z,24.97
2019-04-19T10:41:07.844Z,25.15
2019-04-19T10:42:08.285Z,25.31
2019-04-19T10:43:08.978Z,25.54
2019-04-19T10:44:13.685Z,25.74
2019-04-19T10:45:08.057Z,25.80
2019-04-19T10:46:08.974Z,26.08
2019-04-19T10:47:09.064Z,26.51
2019-04-19T10:48:08.075Z,26.60
2019-04-19T10:49:14.850Z,26.81
2019-04-19T10:50:20.493Z,27.05
2019-04-19T10:51:09.571Z,27.29
2019-04-19T10:52:08.209Z,27.45
2019-04-19T10:53:08.259Z,27.66
2019-04-19T10:54:08.577Z,27.88
2019-04-19T10:55:08.637Z,28.00
2019-04-19T10:56:08.348Z,28.09
2019-04-19T10:57:08.395Z,28.28
2019-04-19T10:58:09.415Z,28.50
2019-04-19T10:59:08.462Z,28.67
2019-04-19T11:00:09.270Z,28.87
2019-04-19T11:01:09.374Z,29.07
2019-04-19T11:02:08.560Z,29.24
2019-04-19T11:03:08.753Z,29.40
2019-04-19T11:04:08.873Z,29.67
2019-04-19T11:05:09.224Z,29.71
2019-04-19T11:06:08.705Z,29.86
2019-04-19T11:07:09.576Z,30.08
2019-04-19T11:08:09.662Z,30.46
2019-04-19T11:09:08.858Z,30.54
2019-04-19T11:10:09.758Z,30.51
2019-04-19T11:11:09.567Z,30.76
2019-04-19T11:12:10.043Z,31.10
2019-04-19T11:13:08.962Z,31.07
2019-04-19T11:14:10.038Z,31.05
2019-04-19T11:15:09.036Z,31.29
2019-04-19T11:16:10.056Z,31.30
2019-04-19T11:17:09.483Z,31.36
2019-04-19T11:18:09.773Z,31.44
2019-04-19T11:19:17.558Z,31.64
2019-04-19T11:20:24.008Z,31.69
2019-04-19T11:21:09.434Z,31.72
2019-04-19T11:22:09.747Z,31.50
2019-04-19T11:23:09.336Z,31.60
2019-04-19T11:24:09.621Z,31.72
2019-04-19T11:25:10.225Z,31.87
2019-04-19T11:26:10.339Z,31.70
2019-04-19T11:27:09.489Z,31.95
2019-04-19T11:28:09.526Z,32.07
2019-04-19T11:29:09.843Z,31.97
2019-04-19T11:30:10.763Z,32.05
2019-04-19T11:31:10.883Z,32.11
2019-04-19T11:32:10.040Z,32.00
2019-04-19T11:33:10.747Z,32.05
2019-04-19T11:34:11.018Z,32.09
2019-04-19T11:35:09.791Z,32.04
2019-04-19T11:36:11.079Z,32.17
2019-04-19T11:37:12.368Z,32.17
2019-04-19T11:38:11.084Z,32.12
2019-04-19T11:39:10.263Z,32.35
2019-04-19T11:40:11.201Z,32.67
2019-04-19T11:41:11.159Z,32.64
2019-04-19T11:42:10.058Z,32.68
2019-04-19T11:43:11.899Z,32.54
2019-04-19T11:44:16.384Z,32.49
2019-04-19T11:45:10.172Z,32.54
2019-04-19T11:46:10.214Z,32.72
2019-04-19T11:47:11.115Z,32.72
2019-04-19T11:48:10.986Z,32.72
2019-04-19T11:49:24.431Z,32.86
2019-04-19T11:50:11.578Z,32.94
2019-04-19T11:51:10.404Z,33.00
2019-04-19T11:52:11.230Z,33.04
2019-04-19T11:53:10.480Z,33.05
2019-04-19T11:54:10.517Z,33.05
2019-04-19T11:55:10.640Z,32.76
2019-04-19T11:56:10.596Z,32.76
2019-04-19T11:57:10.855Z,33.08
2019-04-19T11:58:10.671Z,33.15
2019-04-19T11:59:10.873Z,33.12
2019-04-19T12:00:11.575Z,32.90
2019-04-19T12:01:12.073Z,32.93
2019-04-19T12:02:10.826Z,32.98
2019-04-19T12:03:11.906Z,33.00
2019-04-19T12:04:12.098Z,32.85
2019-04-19T12:05:17.648Z,32.81
2019-04-19T12:06:12.035Z,32.64
2019-04-19T12:07:12.420Z,32.56
2019-04-19T12:08:11.062Z,32.66
2019-04-19T12:09:12.288Z,32.66
2019-04-19T12:10:12.355Z,32.59
2019-04-19T12:11:12.508Z,32.45
2019-04-19T12:12:11.205Z,32.35
2019-04-19T12:13:11.243Z,32.29
2019-04-19T12:14:12.251Z,32.31
2019-04-19T12:15:11.319Z,32.42
2019-04-19T12:16:11.367Z,32.61
2019-04-19T12:17:11.396Z,32.64
2019-04-19T12:18:12.359Z,32.49
2019-04-19T12:19:12.016Z,32.71
2019-04-19T12:20:11.553Z,32.75
2019-04-19T12:21:11.548Z,32.60
2019-04-19T12:22:12.800Z,32.75
2019-04-19T12:23:11.708Z,32.79
2019-04-19T12:24:12.789Z,32.78
2019-04-19T12:25:12.040Z,32.66
2019-04-19T12:26:11.737Z,32.67
2019-04-19T12:27:11.791Z,32.67
2019-04-19T12:28:12.057Z,32.44
2019-04-19T12:29:24.354Z,32.27
2019-04-19T12:30:11.884Z,32.17
2019-04-19T12:31:11.930Z,32.15
2019-04-19T12:32:11.961Z,32.11
2019-04-19T12:33:13.162Z,32.09
2019-04-19T12:34:13.258Z,32.07
2019-04-19T12:35:13.038Z,31.95
2019-04-19T12:36:12.829Z,32.00
2019-04-19T12:37:13.234Z,32.07
2019-04-19T12:38:12.342Z,32.11
2019-04-19T12:39:12.576Z,31.93
2019-04-19T12:40:12.878Z,31.95
2019-04-19T12:41:12.343Z,32.02
2019-04-19T12:42:13.489Z,31.85
2019-04-19T12:43:12.367Z,31.66
2019-04-19T12:44:13.295Z,31.28
2019-04-19T12:45:13.429Z,30.91
2019-04-19T12:46:12.926Z,30.65
2019-04-19T12:47:13.058Z,30.52
2019-04-19T12:48:13.893Z,30.17
2019-04-19T12:49:12.599Z,29.81
2019-04-19T12:50:13.486Z,29.64
2019-04-19T12:51:12.661Z,29.31
2019-04-19T12:52:12.692Z,29.15
2019-04-19T12:53:12.791Z,29.05
2019-04-19T12:54:14.064Z,28.80
2019-04-19T12:55:12.794Z,28.75
2019-04-19T12:56:13.843Z,28.60
2019-04-19T12:57:14.032Z,28.37
2019-04-19T12:58:14.000Z,28.18
2019-04-19T12:59:13.839Z,28.04
2019-04-19T13:00:14.048Z,27.85
2019-04-19T13:01:14.107Z,27.81
2019-04-19T13:02:13.749Z,27.48
2019-04-19T13:03:13.847Z,27.41
2019-04-19T13:04:13.120Z,27.23
2019-04-19T13:05:14.138Z,26.91
2019-04-19T13:06:13.423Z,26.73
2019-04-19T13:07:13.185Z,26.59
2019-04-19T13:08:13.204Z,26.41
2019-04-19T13:09:13.231Z,26.19
2019-04-19T13:10:13.263Z,26.11
2019-04-19T13:11:14.560Z,26.04
2019-04-19T13:12:13.319Z,25.86
2019-04-19T13:13:14.006Z,25.73
2019-04-19T13:14:13.376Z,25.59
2019-04-19T13:15:13.741Z,25.44
2019-04-19T13:16:14.410Z,25.31
2019-04-19T13:17:13.460Z,25.19
2019-04-19T13:18:14.200Z,25.07
2019-04-19T13:19:14.216Z,24.94
2019-04-19T13:20:20.982Z,24.89
2019-04-19T13:21:13.849Z,24.75
2019-04-19T13:22:14.519Z,24.78
2019-04-19T13:23:14.510Z,24.69
2019-04-19T13:24:14.131Z,24.55
2019-04-19T13:25:15.227Z,24.55
2019-04-19T13:26:13.707Z,24.43
2019-04-19T13:27:14.795Z,24.47
2019-04-19T13:28:13.762Z,24.41
2019-04-19T13:29:13.789Z,24.25
2019-04-19T13:30:22.571Z,24.16
2019-04-19T13:31:14.059Z,24.21
2019-04-19T13:32:13.867Z,24.14
2019-04-19T13:33:14.452Z,24.19
2019-04-19T13:34:13.920Z,24.13
2019-04-19T13:35:15.082Z,24.13